sensor_id;sensor_type;location;lat;lon;timestamp;temperature;humidity
4701;DHT22;8724;51.272;6.554;2022-11-15T00:02:37;11.50;99.90
4701;DHT22;8724;51.272;6.554;2022-11-15T00:05:24;11.50;99.90
4701;DHT22;8724;51.272;6.554;2022-11-15T00:08:11;11.50;99.90
4701;DHT22;8724;51.272;6.554;2022-11-15T00:10:59;11.50;99.90
4701;DHT22;8724;51.272;6.554;2022-11-15T00:13:46;11.50;99.90
4701;DHT22;8724;51.272;6.554;2022-11-15T00:16:34;11.60;99.90
4701;DHT22;8724;51.272;6.554;2022-11-15T00:19:21;11.50;99.90
4701;DHT22;8724;51.272;6.554;2022-11-15T00:22:08;11.60;99.90
4701;DHT22;8724;51.272;6.554;2022-11-15T00:24:55;11.60;99.90
4701;DHT22;8724;51.272;6.554;2022-11-15T00:27:41;11.60;99.90
4701;DHT22;8724;51.272;6.554;2022-11-15T00:30:28;11.60;99.90
4701;DHT22;8724;51.272;6.554;2022-11-15T00:33:18;11.60;99.90
4701;DHT22;8724;51.272;6.554;2022-11-15T00:36:08;11.60;99.90
4701;DHT22;8724;51.272;6.554;2022-11-15T00:38:56;11.60;99.90
4701;DHT22;8724;51.272;6.554;2022-11-15T00:41:42;11.60;99.90
4701;DHT22;8724;51.272;6.554;2022-11-15T00:44:29;11.60;99.90
4701;DHT22;8724;51.272;6.554;2022-11-15T00:47:16;11.60;99.90
4701;DHT22;8724;51.272;6.554;2022-11-15T00:50:05;11.70;99.90
4701;DHT22;8724;51.272;6.554;2022-11-15T00:52:57;11.60;99.90
4701;DHT22;8724;51.272;6.554;2022-11-15T00:55:44;11.70;99.90
4701;DHT22;8724;51.272;6.554;2022-11-15T00:58:31;11.70;99.90
4701;DHT22;8724;51.272;6.554;2022-11-15T01:01:17;11.70;99.90
4701;DHT22;8724;51.272;6.554;2022-11-15T01:04:04;11.70;99.90
4701;DHT22;8724;51.272;6.554;2022-11-15T01:06:53;11.70;99.90
4701;DHT22;8724;51.272;6.554;2022-11-15T01:09:39;11.70;99.90
4701;DHT22;8724;51.272;6.554;2022-11-15T01:12:26;11.70;99.90
4701;DHT22;8724;51.272;6.554;2022-11-15T01:15:13;11.70;99.90
4701;DHT22;8724;51.272;6.554;2022-11-15T01:18:02;11.70;99.90
4701;DHT22;8724;51.272;6.554;2022-11-15T01:20:49;11.70;99.90
4701;DHT22;8724;51.272;6.554;2022-11-15T01:23:38;11.70;99.90
4701;DHT22;8724;51.272;6.554;2022-11-15T01:26:25;11.70;99.90
4701;DHT22;8724;51.272;6.554;2022-11-15T01:29:12;11.70;99.90
4701;DHT22;8724;51.272;6.554;2022-11-15T01:31:59;11.80;99.90
4701;DHT22;8724;51.272;6.554;2022-11-15T01:34:46;11.80;99.90
4701;DHT22;8724;51.272;6.554;2022-11-15T01:37:33;11.80;99.90
4701;DHT22;8724;51.272;6.554;2022-11-15T01:40:21;11.80;99.90
4701;DHT22;8724;51.272;6.554;2022-11-15T01:43:22;11.80;99.90
4701;DHT22;8724;51.272;6.554;2022-11-15T01:46:22;12.10;99.90
4701;DHT22;8724;51.272;6.554;2022-11-15T01:49:13;11.80;99.90
4701;DHT22;8724;51.272;6.554;2022-11-15T01:52:03;11.90;99.90
4701;DHT22;8724;51.272;6.554;2022-11-15T01:54:55;11.80;99.90
4701;DHT22;8724;51.272;6.554;2022-11-15T01:57:47;11.80;99.90
4701;DHT22;8724;51.272;6.554;2022-11-15T02:00:35;11.80;99.90
4701;DHT22;8724;51.272;6.554;2022-11-15T02:03:23;11.80;99.90
4701;DHT22;8724;51.272;6.554;2022-11-15T02:06:12;11.80;99.90
4701;DHT22;8724;51.272;6.554;2022-11-15T02:08:59;11.90;99.90
4701;DHT22;8724;51.272;6.554;2022-11-15T02:11:47;11.90;99.90
4701;DHT22;8724;51.272;6.554;2022-11-15T02:14:36;11.90;99.90
4701;DHT22;8724;51.272;6.554;2022-11-15T02:17:39;11.90;99.90
4701;DHT22;8724;51.272;6.554;2022-11-15T02:20:54;11.90;99.90
4701;DHT22;8724;51.272;6.554;2022-11-15T02:24:07;11.90;99.90
4701;DHT22;8724;51.272;6.554;2022-11-15T02:30:48;11.90;99.90
4701;DHT22;8724;51.272;6.554;2022-11-15T02:33:41;11.90;99.90
4701;DHT22;8724;51.272;6.554;2022-11-15T02:36:35;11.90;99.90
4701;DHT22;8724;51.272;6.554;2022-11-15T02:39:28;11.90;99.90
4701;DHT22;8724;51.272;6.554;2022-11-15T02:42:21;11.90;99.90
4701;DHT22;8724;51.272;6.554;2022-11-15T02:45:30;11.90;99.90
4701;DHT22;8724;51.272;6.554;2022-11-15T02:48:20;12.00;99.90
4701;DHT22;8724;51.272;6.554;2022-11-15T02:51:08;12.00;99.90
4701;DHT22;8724;51.272;6.554;2022-11-15T02:53:55;12.00;99.90
4701;DHT22;8724;51.272;6.554;2022-11-15T02:56:43;12.00;99.90
4701;DHT22;8724;51.272;6.554;2022-11-15T03:00:01;12.00;99.90
4701;DHT22;8724;51.272;6.554;2022-11-15T03:03:12;12.00;99.90
4701;DHT22;8724;51.272;6.554;2022-11-15T03:06:13;12.00;99.90
4701;DHT22;8724;51.272;6.554;2022-11-15T03:09:07;12.00;99.90
4701;DHT22;8724;51.272;6.554;2022-11-15T03:12:00;12.00;99.90
4701;DHT22;8724;51.272;6.554;2022-11-15T03:14:53;12.00;99.90
4701;DHT22;8724;51.272;6.554;2022-11-15T03:17:47;12.00;99.90
4701;DHT22;8724;51.272;6.554;2022-11-15T03:20:37;12.00;99.90
4701;DHT22;8724;51.272;6.554;2022-11-15T03:23:29;12.10;99.90
4701;DHT22;8724;51.272;6.554;2022-11-15T03:26:18;12.10;99.90
4701;DHT22;8724;51.272;6.554;2022-11-15T03:29:09;12.10;99.90
4701;DHT22;8724;51.272;6.554;2022-11-15T03:32:01;12.40;99.90
4701;DHT22;8724;51.272;6.554;2022-11-15T03:34:53;12.10;99.90
4701;DHT22;8724;51.272;6.554;2022-11-15T03:37:46;12.10;99.90
4701;DHT22;8724;51.272;6.554;2022-11-15T03:40:39;12.10;99.90
4701;DHT22;8724;51.272;6.554;2022-11-15T03:43:32;12.10;99.90
4701;DHT22;8724;51.272;6.554;2022-11-15T03:46:25;12.40;99.90
4701;DHT22;8724;51.272;6.554;2022-11-15T03:49:17;12.10;99.90
4701;DHT22;8724;51.272;6.554;2022-11-15T03:52:06;12.10;99.90
4701;DHT22;8724;51.272;6.554;2022-11-15T03:54:54;12.10;99.90
4701;DHT22;8724;51.272;6.554;2022-11-15T03:57:43;12.20;99.90
4701;DHT22;8724;51.272;6.554;2022-11-15T04:00:31;12.20;99.90
4701;DHT22;8724;51.272;6.554;2022-11-15T04:03:18;12.10;99.90
4701;DHT22;8724;51.272;6.554;2022-11-15T04:06:05;12.20;99.90
4701;DHT22;8724;51.272;6.554;2022-11-15T04:08:52;12.20;99.90
4701;DHT22;8724;51.272;6.554;2022-11-15T04:11:39;12.40;99.90
4701;DHT22;8724;51.272;6.554;2022-11-15T04:14:27;12.20;99.90
4701;DHT22;8724;51.272;6.554;2022-11-15T04:17:14;12.20;99.90
4701;DHT22;8724;51.272;6.554;2022-11-15T04:20:01;12.20;99.90
4701;DHT22;8724;51.272;6.554;2022-11-15T04:23:08;12.20;99.90
4701;DHT22;8724;51.272;6.554;2022-11-15T04:26:15;12.30;99.90
4701;DHT22;8724;51.272;6.554;2022-11-15T04:29:03;12.30;99.90
4701;DHT22;8724;51.272;6.554;2022-11-15T04:32:14;12.30;99.90
4701;DHT22;8724;51.272;6.554;2022-11-15T04:35:00;12.30;99.90
4701;DHT22;8724;51.272;6.554;2022-11-15T04:37:47;12.30;99.90
4701;DHT22;8724;51.272;6.554;2022-11-15T04:40:34;12.30;99.90
4701;DHT22;8724;51.272;6.554;2022-11-15T04:43:21;12.30;99.90
4701;DHT22;8724;51.272;6.554;2022-11-15T04:46:08;12.30;99.90
4701;DHT22;8724;51.272;6.554;2022-11-15T04:48:56;12.30;99.90
4701;DHT22;8724;51.272;6.554;2022-11-15T04:51:44;12.30;99.90
4701;DHT22;8724;51.272;6.554;2022-11-15T04:54:31;12.30;99.90
4701;DHT22;8724;51.272;6.554;2022-11-15T04:57:18;12.30;99.90
4701;DHT22;8724;51.272;6.554;2022-11-15T05:00:07;12.30;99.90
4701;DHT22;8724;51.272;6.554;2022-11-15T05:02:54;12.40;99.90
4701;DHT22;8724;51.272;6.554;2022-11-15T05:06:00;12.30;99.90
4701;DHT22;8724;51.272;6.554;2022-11-15T05:08:47;12.40;99.90
4701;DHT22;8724;51.272;6.554;2022-11-15T05:11:34;12.40;99.90
4701;DHT22;8724;51.272;6.554;2022-11-15T05:14:20;12.40;99.90
4701;DHT22;8724;51.272;6.554;2022-11-15T05:17:07;12.40;99.90
4701;DHT22;8724;51.272;6.554;2022-11-15T05:19:55;12.40;99.90
4701;DHT22;8724;51.272;6.554;2022-11-15T05:22:43;12.40;99.90
4701;DHT22;8724;51.272;6.554;2022-11-15T05:25:30;12.40;99.90
4701;DHT22;8724;51.272;6.554;2022-11-15T05:28:17;12.40;99.90
4701;DHT22;8724;51.272;6.554;2022-11-15T05:31:08;12.40;99.90
4701;DHT22;8724;51.272;6.554;2022-11-15T05:33:56;12.40;99.90
4701;DHT22;8724;51.272;6.554;2022-11-15T05:36:43;12.40;99.90
4701;DHT22;8724;51.272;6.554;2022-11-15T05:39:32;12.40;99.90
4701;DHT22;8724;51.272;6.554;2022-11-15T05:42:19;12.40;99.90
4701;DHT22;8724;51.272;6.554;2022-11-15T05:45:08;12.40;99.90
4701;DHT22;8724;51.272;6.554;2022-11-15T05:47:56;12.50;99.90
4701;DHT22;8724;51.272;6.554;2022-11-15T05:50:46;12.50;99.90
4701;DHT22;8724;51.272;6.554;2022-11-15T05:53:35;12.50;99.90
4701;DHT22;8724;51.272;6.554;2022-11-15T05:56:24;12.50;99.90
4701;DHT22;8724;51.272;6.554;2022-11-15T05:59:11;12.50;99.90
4701;DHT22;8724;51.272;6.554;2022-11-15T06:01:59;12.50;99.90
4701;DHT22;8724;51.272;6.554;2022-11-15T06:04:46;12.70;99.90
4701;DHT22;8724;51.272;6.554;2022-11-15T06:07:32;12.50;99.90
4701;DHT22;8724;51.272;6.554;2022-11-15T06:10:20;12.50;99.90
4701;DHT22;8724;51.272;6.554;2022-11-15T06:13:08;12.50;99.90
4701;DHT22;8724;51.272;6.554;2022-11-15T06:15:55;12.50;99.90
4701;DHT22;8724;51.272;6.554;2022-11-15T06:18:43;12.50;99.90
4701;DHT22;8724;51.272;6.554;2022-11-15T06:21:29;12.50;99.90
4701;DHT22;8724;51.272;6.554;2022-11-15T06:24:16;12.50;99.90
4701;DHT22;8724;51.272;6.554;2022-11-15T06:27:04;12.50;99.90
4701;DHT22;8724;51.272;6.554;2022-11-15T06:29:53;12.50;99.90
4701;DHT22;8724;51.272;6.554;2022-11-15T06:32:39;12.40;99.90
4701;DHT22;8724;51.272;6.554;2022-11-15T06:35:28;12.60;99.90
4701;DHT22;8724;51.272;6.554;2022-11-15T06:38:15;12.50;99.90
4701;DHT22;8724;51.272;6.554;2022-11-15T06:41:03;12.60;99.90
4701;DHT22;8724;51.272;6.554;2022-11-15T06:43:50;12.60;99.90
4701;DHT22;8724;51.272;6.554;2022-11-15T06:46:41;12.60;99.90
4701;DHT22;8724;51.272;6.554;2022-11-15T06:49:28;12.50;99.90
4701;DHT22;8724;51.272;6.554;2022-11-15T06:52:14;12.50;99.90
4701;DHT22;8724;51.272;6.554;2022-11-15T06:55:04;12.60;99.90
4701;DHT22;8724;51.272;6.554;2022-11-15T06:57:52;12.60;99.90
4701;DHT22;8724;51.272;6.554;2022-11-15T07:00:39;12.60;99.90
4701;DHT22;8724;51.272;6.554;2022-11-15T07:03:28;12.60;99.90
4701;DHT22;8724;51.272;6.554;2022-11-15T07:06:15;12.60;99.90
4701;DHT22;8724;51.272;6.554;2022-11-15T07:09:02;12.60;99.90
4701;DHT22;8724;51.272;6.554;2022-11-15T07:11:49;12.50;99.90
4701;DHT22;8724;51.272;6.554;2022-11-15T07:14:39;12.60;99.90
4701;DHT22;8724;51.272;6.554;2022-11-15T07:17:26;12.60;99.90
4701;DHT22;8724;51.272;6.554;2022-11-15T07:20:14;12.60;99.90
4701;DHT22;8724;51.272;6.554;2022-11-15T07:23:03;12.60;99.90
4701;DHT22;8724;51.272;6.554;2022-11-15T07:25:50;12.60;99.90
4701;DHT22;8724;51.272;6.554;2022-11-15T07:28:37;12.60;99.90
4701;DHT22;8724;51.272;6.554;2022-11-15T07:31:24;12.60;99.90
4701;DHT22;8724;51.272;6.554;2022-11-15T07:34:10;12.60;99.90
4701;DHT22;8724;51.272;6.554;2022-11-15T07:36:58;12.60;99.90
4701;DHT22;8724;51.272;6.554;2022-11-15T07:39:45;12.50;99.90
4701;DHT22;8724;51.272;6.554;2022-11-15T07:42:32;12.60;99.90
4701;DHT22;8724;51.272;6.554;2022-11-15T07:45:41;12.60;99.90
4701;DHT22;8724;51.272;6.554;2022-11-15T07:48:27;12.60;99.90
4701;DHT22;8724;51.272;6.554;2022-11-15T07:51:28;12.60;99.90
4701;DHT22;8724;51.272;6.554;2022-11-15T07:54:16;12.80;99.90
4701;DHT22;8724;51.272;6.554;2022-11-15T07:57:03;12.60;99.90
4701;DHT22;8724;51.272;6.554;2022-11-15T07:59:55;12.60;99.90
4701;DHT22;8724;51.272;6.554;2022-11-15T08:02:42;12.60;99.90
4701;DHT22;8724;51.272;6.554;2022-11-15T08:05:29;12.50;99.90
4701;DHT22;8724;51.272;6.554;2022-11-15T08:08:16;12.60;99.90
4701;DHT22;8724;51.272;6.554;2022-11-15T08:11:04;12.60;99.90
4701;DHT22;8724;51.272;6.554;2022-11-15T08:13:51;12.60;99.90
4701;DHT22;8724;51.272;6.554;2022-11-15T08:16:38;12.60;99.90
4701;DHT22;8724;51.272;6.554;2022-11-15T08:19:25;12.60;99.90
4701;DHT22;8724;51.272;6.554;2022-11-15T08:22:12;12.50;99.90
4701;DHT22;8724;51.272;6.554;2022-11-15T08:24:59;12.50;99.90
4701;DHT22;8724;51.272;6.554;2022-11-15T08:27:47;12.50;99.90
4701;DHT22;8724;51.272;6.554;2022-11-15T08:30:36;12.60;99.90
4701;DHT22;8724;51.272;6.554;2022-11-15T08:33:23;12.60;99.90
4701;DHT22;8724;51.272;6.554;2022-11-15T08:36:14;12.60;99.90
4701;DHT22;8724;51.272;6.554;2022-11-15T08:39:01;12.60;99.90
4701;DHT22;8724;51.272;6.554;2022-11-15T08:41:48;12.60;99.90
4701;DHT22;8724;51.272;6.554;2022-11-15T08:44:36;12.60;99.90
4701;DHT22;8724;51.272;6.554;2022-11-15T08:47:23;12.70;99.90
4701;DHT22;8724;51.272;6.554;2022-11-15T08:50:09;12.60;99.90
4701;DHT22;8724;51.272;6.554;2022-11-15T08:52:56;12.70;99.90
4701;DHT22;8724;51.272;6.554;2022-11-15T08:55:49;12.70;99.90
4701;DHT22;8724;51.272;6.554;2022-11-15T08:58:58;12.70;99.90
4701;DHT22;8724;51.272;6.554;2022-11-15T09:01:46;12.60;99.90
4701;DHT22;8724;51.272;6.554;2022-11-15T09:04:33;12.70;99.90
4701;DHT22;8724;51.272;6.554;2022-11-15T09:07:20;12.70;99.90
4701;DHT22;8724;51.272;6.554;2022-11-15T09:10:07;12.70;99.90
4701;DHT22;8724;51.272;6.554;2022-11-15T09:12:56;12.70;99.90
4701;DHT22;8724;51.272;6.554;2022-11-15T09:15:43;12.70;99.90
4701;DHT22;8724;51.272;6.554;2022-11-15T09:18:32;12.70;99.90
4701;DHT22;8724;51.272;6.554;2022-11-15T09:21:19;12.70;99.90
4701;DHT22;8724;51.272;6.554;2022-11-15T09:24:06;12.70;99.90
4701;DHT22;8724;51.272;6.554;2022-11-15T09:26:53;12.80;99.90
4701;DHT22;8724;51.272;6.554;2022-11-15T09:30:06;12.80;99.90
4701;DHT22;8724;51.272;6.554;2022-11-15T09:32:53;12.70;99.90
4701;DHT22;8724;51.272;6.554;2022-11-15T09:35:41;12.70;99.90
4701;DHT22;8724;51.272;6.554;2022-11-15T09:38:28;12.80;99.90
4701;DHT22;8724;51.272;6.554;2022-11-15T09:41:57;12.80;99.90
4701;DHT22;8724;51.272;6.554;2022-11-15T09:45:06;12.80;99.90
4701;DHT22;8724;51.272;6.554;2022-11-15T09:51:23;12.80;99.90
4701;DHT22;8724;51.272;6.554;2022-11-15T09:53:58;12.80;99.90
4701;DHT22;8724;51.272;6.554;2022-11-15T09:56:48;12.90;99.90
4701;DHT22;8724;51.272;6.554;2022-11-15T09:59:44;12.90;99.90
4701;DHT22;8724;51.272;6.554;2022-11-15T10:02:31;12.80;99.90
4701;DHT22;8724;51.272;6.554;2022-11-15T10:05:01;12.90;99.90
4701;DHT22;8724;51.272;6.554;2022-11-15T10:07:39;12.90;99.90
4701;DHT22;8724;51.272;6.554;2022-11-15T10:10:15;12.90;99.90
4701;DHT22;8724;51.272;6.554;2022-11-15T10:12:48;12.90;99.90
4701;DHT22;8724;51.272;6.554;2022-11-15T10:15:19;12.90;99.90
4701;DHT22;8724;51.272;6.554;2022-11-15T10:18:03;12.90;99.90
4701;DHT22;8724;51.272;6.554;2022-11-15T10:20:42;12.90;99.90
4701;DHT22;8724;51.272;6.554;2022-11-15T10:23:16;12.90;99.90
4701;DHT22;8724;51.272;6.554;2022-11-15T10:25:45;12.90;99.90
4701;DHT22;8724;51.272;6.554;2022-11-15T10:28:16;12.90;99.90
4701;DHT22;8724;51.272;6.554;2022-11-15T10:30:46;12.90;99.90
4701;DHT22;8724;51.272;6.554;2022-11-15T10:33:24;12.90;99.90
4701;DHT22;8724;51.272;6.554;2022-11-15T10:36:18;12.90;99.90
4701;DHT22;8724;51.272;6.554;2022-11-15T10:38:56;12.90;99.90
4701;DHT22;8724;51.272;6.554;2022-11-15T10:41:40;12.90;99.90
4701;DHT22;8724;51.272;6.554;2022-11-15T10:44:18;13.00;99.90
4701;DHT22;8724;51.272;6.554;2022-11-15T10:46:49;13.00;99.90
4701;DHT22;8724;51.272;6.554;2022-11-15T10:49:32;13.00;99.90
4701;DHT22;8724;51.272;6.554;2022-11-15T10:52:04;13.00;99.90
4701;DHT22;8724;51.272;6.554;2022-11-15T10:54:43;13.00;99.90
4701;DHT22;8724;51.272;6.554;2022-11-15T10:57:14;13.00;99.90
4701;DHT22;8724;51.272;6.554;2022-11-15T10:59:46;13.00;99.90
4701;DHT22;8724;51.272;6.554;2022-11-15T11:02:29;13.00;99.90
4701;DHT22;8724;51.272;6.554;2022-11-15T11:04:59;13.00;99.90
4701;DHT22;8724;51.272;6.554;2022-11-15T11:07:29;13.00;99.90
4701;DHT22;8724;51.272;6.554;2022-11-15T11:10:00;13.10;99.90
4701;DHT22;8724;51.272;6.554;2022-11-15T11:12:48;13.10;99.90
4701;DHT22;8724;51.272;6.554;2022-11-15T11:15:17;13.10;99.90
4701;DHT22;8724;51.272;6.554;2022-11-15T11:18:01;13.10;99.90
4701;DHT22;8724;51.272;6.554;2022-11-15T11:20:36;13.20;99.90
4701;DHT22;8724;51.272;6.554;2022-11-15T11:23:20;13.10;99.90
4701;DHT22;8724;51.272;6.554;2022-11-15T11:25:59;13.20;99.90
4701;DHT22;8724;51.272;6.554;2022-11-15T11:28:39;13.20;99.90
4701;DHT22;8724;51.272;6.554;2022-11-15T11:31:20;13.20;99.90
4701;DHT22;8724;51.272;6.554;2022-11-15T11:34:00;13.20;99.90
4701;DHT22;8724;51.272;6.554;2022-11-15T11:36:39;13.20;99.90
4701;DHT22;8724;51.272;6.554;2022-11-15T11:39:20;13.30;99.90
4701;DHT22;8724;51.272;6.554;2022-11-15T11:45:15;13.30;99.90
4701;DHT22;8724;51.272;6.554;2022-11-15T11:51:08;13.30;99.90
4701;DHT22;8724;51.272;6.554;2022-11-15T11:53:42;13.40;99.90
4701;DHT22;8724;51.272;6.554;2022-11-15T11:56:21;13.30;99.90
4701;DHT22;8724;51.272;6.554;2022-11-15T11:58:54;13.40;99.90
4701;DHT22;8724;51.272;6.554;2022-11-15T12:01:29;13.40;99.90
4701;DHT22;8724;51.272;6.554;2022-11-15T12:04:03;13.40;99.90
4701;DHT22;8724;51.272;6.554;2022-11-15T12:06:38;13.40;99.90
4701;DHT22;8724;51.272;6.554;2022-11-15T12:09:15;13.50;99.90
4701;DHT22;8724;51.272;6.554;2022-11-15T12:11:51;13.40;99.90
4701;DHT22;8724;51.272;6.554;2022-11-15T12:14:27;13.50;99.90
4701;DHT22;8724;51.272;6.554;2022-11-15T12:16:58;13.50;99.90
4701;DHT22;8724;51.272;6.554;2022-11-15T12:19:29;13.50;99.90
4701;DHT22;8724;51.272;6.554;2022-11-15T12:22:02;13.50;99.90
4701;DHT22;8724;51.272;6.554;2022-11-15T12:24:34;13.50;99.90
4701;DHT22;8724;51.272;6.554;2022-11-15T12:27:08;13.60;99.90
4701;DHT22;8724;51.272;6.554;2022-11-15T12:29:40;13.60;99.90
4701;DHT22;8724;51.272;6.554;2022-11-15T12:32:25;13.60;99.90
4701;DHT22;8724;51.272;6.554;2022-11-15T12:34:55;13.60;99.90
4701;DHT22;8724;51.272;6.554;2022-11-15T12:37:49;13.70;99.90
4701;DHT22;8724;51.272;6.554;2022-11-15T12:40:25;13.70;99.90
4701;DHT22;8724;51.272;6.554;2022-11-15T12:43:03;13.70;99.90
4701;DHT22;8724;51.272;6.554;2022-11-15T12:45:33;13.70;99.90
4701;DHT22;8724;51.272;6.554;2022-11-15T12:54:57;13.80;99.90
4701;DHT22;8724;51.272;6.554;2022-11-15T12:57:42;13.80;99.90
4701;DHT22;8724;51.272;6.554;2022-11-15T13:00:43;13.90;99.90
4701;DHT22;8724;51.272;6.554;2022-11-15T13:03:23;13.90;99.90
4701;DHT22;8724;51.272;6.554;2022-11-15T13:06:00;13.90;99.90
4701;DHT22;8724;51.272;6.554;2022-11-15T13:08:44;13.90;99.90
4701;DHT22;8724;51.272;6.554;2022-11-15T13:11:44;13.90;99.90
4701;DHT22;8724;51.272;6.554;2022-11-15T13:14:42;13.90;99.90
4701;DHT22;8724;51.272;6.554;2022-11-15T13:17:30;13.90;99.90
4701;DHT22;8724;51.272;6.554;2022-11-15T13:20:21;14.00;99.90
4701;DHT22;8724;51.272;6.554;2022-11-15T13:22:51;14.00;99.90
4701;DHT22;8724;51.272;6.554;2022-11-15T13:25:38;14.00;99.90
4701;DHT22;8724;51.272;6.554;2022-11-15T13:28:20;14.00;99.90
4701;DHT22;8724;51.272;6.554;2022-11-15T13:30:51;14.00;99.90
4701;DHT22;8724;51.272;6.554;2022-11-15T13:33:22;14.00;99.90
4701;DHT22;8724;51.272;6.554;2022-11-15T13:35:54;14.00;99.90
4701;DHT22;8724;51.272;6.554;2022-11-15T13:38:27;14.00;99.90
4701;DHT22;8724;51.272;6.554;2022-11-15T13:40:57;14.00;99.90
4701;DHT22;8724;51.272;6.554;2022-11-15T13:43:31;14.00;99.90
4701;DHT22;8724;51.272;6.554;2022-11-15T13:46:10;14.00;99.90
4701;DHT22;8724;51.272;6.554;2022-11-15T13:48:43;14.00;99.90
4701;DHT22;8724;51.272;6.554;2022-11-15T13:51:17;14.00;99.90
4701;DHT22;8724;51.272;6.554;2022-11-15T13:53:49;14.00;99.90
4701;DHT22;8724;51.272;6.554;2022-11-15T13:56:21;14.00;99.90
4701;DHT22;8724;51.272;6.554;2022-11-15T13:58:51;14.00;99.90
4701;DHT22;8724;51.272;6.554;2022-11-15T14:01:21;14.00;99.90
4701;DHT22;8724;51.272;6.554;2022-11-15T14:03:53;14.00;99.90
4701;DHT22;8724;51.272;6.554;2022-11-15T14:06:23;14.00;99.90
4701;DHT22;8724;51.272;6.554;2022-11-15T14:12:20;14.00;99.90
4701;DHT22;8724;51.272;6.554;2022-11-15T14:14:51;14.00;99.90
4701;DHT22;8724;51.272;6.554;2022-11-15T14:17:21;14.00;99.90
4701;DHT22;8724;51.272;6.554;2022-11-15T14:22:55;14.00;99.90
4701;DHT22;8724;51.272;6.554;2022-11-15T14:25:24;14.10;99.90
4701;DHT22;8724;51.272;6.554;2022-11-15T14:28:27;14.00;99.90
4701;DHT22;8724;51.272;6.554;2022-11-15T14:31:00;14.00;99.90
4701;DHT22;8724;51.272;6.554;2022-11-15T14:33:30;14.00;99.90
4701;DHT22;8724;51.272;6.554;2022-11-15T14:36:04;14.00;99.90
4701;DHT22;8724;51.272;6.554;2022-11-15T14:38:33;14.00;99.90
4701;DHT22;8724;51.272;6.554;2022-11-15T14:41:02;14.00;99.90
4701;DHT22;8724;51.272;6.554;2022-11-15T14:43:30;14.00;99.90
4701;DHT22;8724;51.272;6.554;2022-11-15T14:46:00;14.00;99.90
4701;DHT22;8724;51.272;6.554;2022-11-15T14:48:28;14.00;99.90
4701;DHT22;8724;51.272;6.554;2022-11-15T14:50:57;14.00;99.90
4701;DHT22;8724;51.272;6.554;2022-11-15T14:53:26;14.00;99.90
4701;DHT22;8724;51.272;6.554;2022-11-15T14:55:54;14.00;99.90
4701;DHT22;8724;51.272;6.554;2022-11-15T14:58:22;14.00;99.90
4701;DHT22;8724;51.272;6.554;2022-11-15T15:00:50;14.00;99.90
4701;DHT22;8724;51.272;6.554;2022-11-15T15:03:20;14.00;99.90
4701;DHT22;8724;51.272;6.554;2022-11-15T15:05:48;14.00;99.90
4701;DHT22;8724;51.272;6.554;2022-11-15T15:08:17;14.00;99.90
4701;DHT22;8724;51.272;6.554;2022-11-15T15:10:45;14.00;99.90
4701;DHT22;8724;51.272;6.554;2022-11-15T15:13:17;14.00;99.90
4701;DHT22;8724;51.272;6.554;2022-11-15T15:15:46;14.00;99.90
4701;DHT22;8724;51.272;6.554;2022-11-15T15:18:15;14.00;99.90
4701;DHT22;8724;51.272;6.554;2022-11-15T15:20:49;14.00;99.90
4701;DHT22;8724;51.272;6.554;2022-11-15T15:23:20;14.00;99.90
4701;DHT22;8724;51.272;6.554;2022-11-15T15:25:51;14.00;99.90
4701;DHT22;8724;51.272;6.554;2022-11-15T15:28:20;14.00;99.90
4701;DHT22;8724;51.272;6.554;2022-11-15T15:30:48;14.00;99.90
4701;DHT22;8724;51.272;6.554;2022-11-15T15:33:17;14.00;99.90
4701;DHT22;8724;51.272;6.554;2022-11-15T15:35:46;14.00;99.90
4701;DHT22;8724;51.272;6.554;2022-11-15T15:38:15;14.00;99.90
4701;DHT22;8724;51.272;6.554;2022-11-15T15:40:43;14.00;99.90
4701;DHT22;8724;51.272;6.554;2022-11-15T15:43:11;14.00;99.90
4701;DHT22;8724;51.272;6.554;2022-11-15T15:45:41;14.00;99.90
4701;DHT22;8724;51.272;6.554;2022-11-15T15:48:11;14.00;99.90
4701;DHT22;8724;51.272;6.554;2022-11-15T15:50:41;14.00;99.90
4701;DHT22;8724;51.272;6.554;2022-11-15T15:53:12;14.00;99.90
4701;DHT22;8724;51.272;6.554;2022-11-15T15:55:41;14.30;99.90
4701;DHT22;8724;51.272;6.554;2022-11-15T15:58:09;14.00;99.90
4701;DHT22;8724;51.272;6.554;2022-11-15T16:00:40;14.00;99.90
4701;DHT22;8724;51.272;6.554;2022-11-15T16:03:08;14.00;99.90
4701;DHT22;8724;51.272;6.554;2022-11-15T16:05:36;14.00;99.90
4701;DHT22;8724;51.272;6.554;2022-11-15T16:08:05;14.00;99.90
4701;DHT22;8724;51.272;6.554;2022-11-15T16:10:35;14.00;99.90
4701;DHT22;8724;51.272;6.554;2022-11-15T16:13:03;14.00;99.90
4701;DHT22;8724;51.272;6.554;2022-11-15T16:15:32;14.00;99.90
4701;DHT22;8724;51.272;6.554;2022-11-15T16:18:01;14.00;99.90
4701;DHT22;8724;51.272;6.554;2022-11-15T16:20:33;14.10;99.90
4701;DHT22;8724;51.272;6.554;2022-11-15T16:23:03;14.00;99.90
4701;DHT22;8724;51.272;6.554;2022-11-15T16:25:41;14.00;99.90
4701;DHT22;8724;51.272;6.554;2022-11-15T16:28:18;14.00;99.90
4701;DHT22;8724;51.272;6.554;2022-11-15T16:30:47;14.00;99.90
4701;DHT22;8724;51.272;6.554;2022-11-15T16:33:23;14.00;99.90
4701;DHT22;8724;51.272;6.554;2022-11-15T16:35:52;14.00;99.90
4701;DHT22;8724;51.272;6.554;2022-11-15T16:38:20;14.10;99.90
4701;DHT22;8724;51.272;6.554;2022-11-15T16:40:49;14.10;99.90
4701;DHT22;8724;51.272;6.554;2022-11-15T16:43:18;14.00;99.90
4701;DHT22;8724;51.272;6.554;2022-11-15T16:45:49;14.10;99.90
4701;DHT22;8724;51.272;6.554;2022-11-15T16:48:22;14.00;99.90
4701;DHT22;8724;51.272;6.554;2022-11-15T16:50:54;14.10;99.90
4701;DHT22;8724;51.272;6.554;2022-11-15T16:53:23;14.00;99.90
4701;DHT22;8724;51.272;6.554;2022-11-15T16:55:53;14.00;99.90
4701;DHT22;8724;51.272;6.554;2022-11-15T16:58:22;14.10;99.90
4701;DHT22;8724;51.272;6.554;2022-11-15T17:00:51;14.10;99.90
4701;DHT22;8724;51.272;6.554;2022-11-15T17:03:21;14.10;99.90
4701;DHT22;8724;51.272;6.554;2022-11-15T17:05:50;14.10;99.90
4701;DHT22;8724;51.272;6.554;2022-11-15T17:08:18;14.10;99.90
4701;DHT22;8724;51.272;6.554;2022-11-15T17:10:48;14.10;99.90
4701;DHT22;8724;51.272;6.554;2022-11-15T17:13:18;14.10;99.90
4701;DHT22;8724;51.272;6.554;2022-11-15T17:15:46;14.10;99.90
4701;DHT22;8724;51.272;6.554;2022-11-15T17:18:14;14.10;99.90
4701;DHT22;8724;51.272;6.554;2022-11-15T17:20:42;14.10;99.90
4701;DHT22;8724;51.272;6.554;2022-11-15T17:23:14;14.10;99.90
4701;DHT22;8724;51.272;6.554;2022-11-15T17:25:45;14.10;99.90
4701;DHT22;8724;51.272;6.554;2022-11-15T17:28:13;14.10;99.90
4701;DHT22;8724;51.272;6.554;2022-11-15T17:30:43;14.10;99.90
4701;DHT22;8724;51.272;6.554;2022-11-15T17:33:11;14.10;99.90
4701;DHT22;8724;51.272;6.554;2022-11-15T17:35:39;14.10;99.90
4701;DHT22;8724;51.272;6.554;2022-11-15T17:38:07;14.10;99.90
4701;DHT22;8724;51.272;6.554;2022-11-15T17:40:35;14.10;99.90
4701;DHT22;8724;51.272;6.554;2022-11-15T17:43:04;14.10;99.90
4701;DHT22;8724;51.272;6.554;2022-11-15T17:45:33;14.10;99.90
4701;DHT22;8724;51.272;6.554;2022-11-15T17:48:03;14.10;99.90
4701;DHT22;8724;51.272;6.554;2022-11-15T17:50:31;14.10;99.90
4701;DHT22;8724;51.272;6.554;2022-11-15T17:53:00;14.10;99.90
4701;DHT22;8724;51.272;6.554;2022-11-15T17:55:28;14.10;99.90
4701;DHT22;8724;51.272;6.554;2022-11-15T17:57:56;14.10;99.90
4701;DHT22;8724;51.272;6.554;2022-11-15T18:00:24;14.10;99.90
4701;DHT22;8724;51.272;6.554;2022-11-15T18:02:52;14.20;99.90
4701;DHT22;8724;51.272;6.554;2022-11-15T18:05:22;14.20;99.90
4701;DHT22;8724;51.272;6.554;2022-11-15T18:07:50;14.10;99.90